sensor_id;sensor_type;location;lat;lon;timestamp;P1;durP1;ratioP1;P2;durP2;ratioP2
64938;SDS011;51453;47.738;7.420;2023-04-16T00:01:09;7.80;;;6.78;;
64938;SDS011;51453;47.738;7.420;2023-04-16T00:03:36;7.72;;;6.93;;
64938;SDS011;51453;47.738;7.420;2023-04-16T00:06:01;7.97;;;7.05;;
64938;SDS011;51453;47.738;7.420;2023-04-16T00:08:27;8.05;;;7.25;;
64938;SDS011;51453;47.738;7.420;2023-04-16T00:10:53;8.68;;;7.78;;
64938;SDS011;51453;47.738;7.420;2023-04-16T00:13:18;8.98;;;8.07;;
64938;SDS011;51453;47.738;7.420;2023-04-16T00:15:44;10.90;;;9.25;;
64938;SDS011;51453;47.738;7.420;2023-04-16T00:18:10;9.77;;;8.35;;
64938;SDS011;51453;47.738;7.420;2023-04-16T00:20:36;10.27;;;8.57;;
64938;SDS011;51453;47.738;7.420;2023-04-16T00:23:01;9.45;;;8.45;;
64938;SDS011;51453;47.738;7.420;2023-04-16T00:25:27;11.50;;;9.88;;
64938;SDS011;51453;47.738;7.420;2023-04-16T00:27:52;10.68;;;9.15;;
64938;SDS011;51453;47.738;7.420;2023-04-16T00:30:18;11.32;;;9.77;;
64938;SDS011;51453;47.738;7.420;2023-04-16T00:32:44;12.25;;;10.05;;
64938;SDS011;51453;47.738;7.420;2023-04-16T00:35:10;12.20;;;9.98;;
64938;SDS011;51453;47.738;7.420;2023-04-16T00:37:35;11.63;;;9.90;;
64938;SDS011;51453;47.738;7.420;2023-04-16T00:40:01;12.48;;;10.13;;
64938;SDS011;51453;47.738;7.420;2023-04-16T00:42:26;12.70;;;10.68;;
64938;SDS011;51453;47.738;7.420;2023-04-16T00:44:52;15.07;;;11.75;;
64938;SDS011;51453;47.738;7.420;2023-04-16T00:47:18;14.75;;;12.45;;
64938;SDS011;51453;47.738;7.420;2023-04-16T00:49:45;13.70;;;11.38;;
64938;SDS011;51453;47.738;7.420;2023-04-16T00:52:11;13.93;;;11.38;;
64938;SDS011;51453;47.738;7.420;2023-04-16T00:54:37;17.10;;;11.98;;
64938;SDS011;51453;47.738;7.420;2023-04-16T00:57:03;15.65;;;12.20;;
64938;SDS011;51453;47.738;7.420;2023-04-16T00:59:30;19.50;;;12.18;;
64938;SDS011;51453;47.738;7.420;2023-04-16T01:01:56;15.50;;;12.25;;
64938;SDS011;51453;47.738;7.420;2023-04-16T01:04:21;17.33;;;11.27;;
64938;SDS011;51453;47.738;7.420;2023-04-16T01:06:47;14.43;;;12.13;;
64938;SDS011;51453;47.738;7.420;2023-04-16T01:09:13;16.02;;;11.73;;
64938;SDS011;51453;47.738;7.420;2023-04-16T01:11:38;13.00;;;10.65;;
64938;SDS011;51453;47.738;7.420;2023-04-16T01:14:04;15.13;;;11.43;;
64938;SDS011;51453;47.738;7.420;2023-04-16T01:16:30;14.52;;;11.20;;
64938;SDS011;51453;47.738;7.420;2023-04-16T01:18:56;12.82;;;11.15;;
64938;SDS011;51453;47.738;7.420;2023-04-16T01:21:22;16.75;;;12.70;;
64938;SDS011;51453;47.738;7.420;2023-04-16T01:23:47;16.67;;;12.73;;
64938;SDS011;51453;47.738;7.420;2023-04-16T01:26:13;15.00;;;12.05;;
64938;SDS011;51453;47.738;7.420;2023-04-16T01:28:39;18.73;;;12.93;;
64938;SDS011;51453;47.738;7.420;2023-04-16T01:31:05;13.93;;;11.75;;
64938;SDS011;51453;47.738;7.420;2023-04-16T01:33:30;16.67;;;12.27;;
64938;SDS011;51453;47.738;7.420;2023-04-16T01:35:56;15.95;;;12.45;;
64938;SDS011;51453;47.738;7.420;2023-04-16T01:38:22;15.02;;;11.45;;
64938;SDS011;51453;47.738;7.420;2023-04-16T01:40:47;15.18;;;11.40;;
64938;SDS011;51453;47.738;7.420;2023-04-16T01:43:13;16.25;;;13.05;;
64938;SDS011;51453;47.738;7.420;2023-04-16T01:45:38;17.63;;;12.98;;
64938;SDS011;51453;47.738;7.420;2023-04-16T01:48:04;19.48;;;13.68;;
64938;SDS011;51453;47.738;7.420;2023-04-16T01:50:30;16.27;;;12.95;;
64938;SDS011;51453;47.738;7.420;2023-04-16T01:52:56;15.27;;;12.18;;
64938;SDS011;51453;47.738;7.420;2023-04-16T01:55:21;16.42;;;12.23;;
64938;SDS011;51453;47.738;7.420;2023-04-16T01:57:47;14.05;;;11.45;;
64938;SDS011;51453;47.738;7.420;2023-04-16T02:00:13;14.90;;;11.65;;
64938;SDS011;51453;47.738;7.420;2023-04-16T02:02:38;15.45;;;12.38;;
64938;SDS011;51453;47.738;7.420;2023-04-16T02:05:04;16.85;;;13.80;;
64938;SDS011;51453;47.738;7.420;2023-04-16T02:07:30;18.55;;;13.40;;
64938;SDS011;51453;47.738;7.420;2023-04-16T02:09:56;18.00;;;12.95;;
64938;SDS011;51453;47.738;7.420;2023-04-16T02:12:22;17.83;;;13.65;;
64938;SDS011;51453;47.738;7.420;2023-04-16T02:14:48;15.85;;;12.65;;
64938;SDS011;51453;47.738;7.420;2023-04-16T02:17:13;17.35;;;13.20;;
64938;SDS011;51453;47.738;7.420;2023-04-16T02:19:39;18.15;;;13.75;;
64938;SDS011;51453;47.738;7.420;2023-04-16T02:22:05;15.95;;;12.95;;
64938;SDS011;51453;47.738;7.420;2023-04-16T02:24:31;17.25;;;13.10;;
64938;SDS011;51453;47.738;7.420;2023-04-16T02:26:57;18.75;;;14.25;;
64938;SDS011;51453;47.738;7.420;2023-04-16T02:29:22;18.20;;;13.38;;
64938;SDS011;51453;47.738;7.420;2023-04-16T02:31:48;18.85;;;12.95;;
64938;SDS011;51453;47.738;7.420;2023-04-16T02:34:14;15.45;;;12.25;;
64938;SDS011;51453;47.738;7.420;2023-04-16T02:36:39;16.77;;;13.05;;
64938;SDS011;51453;47.738;7.420;2023-04-16T02:39:05;18.52;;;14.23;;
64938;SDS011;51453;47.738;7.420;2023-04-16T02:41:31;18.00;;;13.95;;
64938;SDS011;51453;47.738;7.420;2023-04-16T02:43:56;15.82;;;12.07;;
64938;SDS011;51453;47.738;7.420;2023-04-16T02:46:22;17.65;;;13.00;;
64938;SDS011;51453;47.738;7.420;2023-04-16T02:48:48;18.23;;;13.73;;
64938;SDS011;51453;47.738;7.420;2023-04-16T02:51:14;19.58;;;14.27;;
64938;SDS011;51453;47.738;7.420;2023-04-16T02:53:39;18.80;;;14.00;;
64938;SDS011;51453;47.738;7.420;2023-04-16T02:56:05;16.65;;;12.98;;
64938;SDS011;51453;47.738;7.420;2023-04-16T02:58:31;18.70;;;14.13;;
64938;SDS011;51453;47.738;7.420;2023-04-16T03:00:57;19.55;;;13.70;;
64938;SDS011;51453;47.738;7.420;2023-04-16T03:03:22;16.38;;;12.63;;
64938;SDS011;51453;47.738;7.420;2023-04-16T03:05:48;18.58;;;14.15;;
64938;SDS011;51453;47.738;7.420;2023-04-16T03:08:14;18.05;;;13.52;;
64938;SDS011;51453;47.738;7.420;2023-04-16T03:10:39;19.88;;;14.85;;
64938;SDS011;51453;47.738;7.420;2023-04-16T03:13:05;18.73;;;14.20;;
64938;SDS011;51453;47.738;7.420;2023-04-16T03:15:31;18.55;;;14.27;;
64938;SDS011;51453;47.738;7.420;2023-04-16T03:17:57;18.70;;;14.88;;
64938;SDS011;51453;47.738;7.420;2023-04-16T03:20:23;19.30;;;15.30;;
64938;SDS011;51453;47.738;7.420;2023-04-16T03:22:49;23.58;;;16.98;;
64938;SDS011;51453;47.738;7.420;2023-04-16T03:25:16;26.67;;;17.85;;
64938;SDS011;51453;47.738;7.420;2023-04-16T03:27:42;23.70;;;17.48;;
64938;SDS011;51453;47.738;7.420;2023-04-16T03:30:11;24.65;;;18.55;;
64938;SDS011;51453;47.738;7.420;2023-04-16T03:32:38;24.40;;;18.73;;
64938;SDS011;51453;47.738;7.420;2023-04-16T03:35:04;28.42;;;19.20;;
64938;SDS011;51453;47.738;7.420;2023-04-16T03:37:31;28.88;;;20.63;;
64938;SDS011;51453;47.738;7.420;2023-04-16T03:39:57;30.05;;;20.08;;
64938;SDS011;51453;47.738;7.420;2023-04-16T03:42:23;27.33;;;19.75;;
64938;SDS011;51453;47.738;7.420;2023-04-16T03:44:49;31.02;;;20.77;;
64938;SDS011;51453;47.738;7.420;2023-04-16T03:47:15;34.20;;;21.90;;
64938;SDS011;51453;47.738;7.420;2023-04-16T03:49:40;33.28;;;19.63;;
64938;SDS011;51453;47.738;7.420;2023-04-16T03:52:06;33.22;;;21.33;;
64938;SDS011;51453;47.738;7.420;2023-04-16T03:54:31;36.15;;;22.85;;
64938;SDS011;51453;47.738;7.420;2023-04-16T03:56:57;30.80;;;21.45;;
64938;SDS011;51453;47.738;7.420;2023-04-16T03:59:23;39.47;;;23.85;;
64938;SDS011;51453;47.738;7.420;2023-04-16T04:01:48;33.22;;;22.40;;
64938;SDS011;51453;47.738;7.420;2023-04-16T04:04:14;36.92;;;23.27;;
64938;SDS011;51453;47.738;7.420;2023-04-16T04:06:41;36.10;;;24.00;;
64938;SDS011;51453;47.738;7.420;2023-04-16T04:09:06;34.13;;;21.60;;
64938;SDS011;51453;47.738;7.420;2023-04-16T04:11:32;38.92;;;24.42;;
64938;SDS011;51453;47.738;7.420;2023-04-16T04:13:58;36.30;;;23.33;;
64938;SDS011;51453;47.738;7.420;2023-04-16T04:16:23;42.35;;;24.63;;
64938;SDS011;51453;47.738;7.420;2023-04-16T04:18:49;40.95;;;24.35;;
64938;SDS011;51453;47.738;7.420;2023-04-16T04:21:15;41.25;;;24.17;;
64938;SDS011;51453;47.738;7.420;2023-04-16T04:23:40;45.08;;;27.33;;
64938;SDS011;51453;47.738;7.420;2023-04-16T04:26:06;42.92;;;26.10;;
64938;SDS011;51453;47.738;7.420;2023-04-16T04:28:33;39.20;;;23.83;;
64938;SDS011;51453;47.738;7.420;2023-04-16T04:30:59;41.47;;;25.35;;
64938;SDS011;51453;47.738;7.420;2023-04-16T04:33:25;40.45;;;23.48;;
64938;SDS011;51453;47.738;7.420;2023-04-16T04:35:51;40.45;;;23.92;;
64938;SDS011;51453;47.738;7.420;2023-04-16T04:38:17;44.90;;;25.98;;
64938;SDS011;51453;47.738;7.420;2023-04-16T04:40:44;40.25;;;23.60;;
64938;SDS011;51453;47.738;7.420;2023-04-16T04:43:10;42.15;;;24.58;;
64938;SDS011;51453;47.738;7.420;2023-04-16T04:45:36;53.45;;;27.25;;
64938;SDS011;51453;47.738;7.420;2023-04-16T04:48:02;45.92;;;27.70;;
64938;SDS011;51453;47.738;7.420;2023-04-16T04:50:27;47.15;;;27.67;;
64938;SDS011;51453;47.738;7.420;2023-04-16T04:52:53;45.03;;;26.45;;
64938;SDS011;51453;47.738;7.420;2023-04-16T04:55:19;48.03;;;27.10;;
64938;SDS011;51453;47.738;7.420;2023-04-16T04:57:44;48.75;;;27.20;;
64938;SDS011;51453;47.738;7.420;2023-04-16T05:00:10;48.17;;;28.27;;
64938;SDS011;51453;47.738;7.420;2023-04-16T05:02:36;46.03;;;26.20;;
64938;SDS011;51453;47.738;7.420;2023-04-16T05:05:02;41.60;;;24.85;;
64938;SDS011;51453;47.738;7.420;2023-04-16T05:07:29;39.83;;;24.42;;
64938;SDS011;51453;47.738;7.420;2023-04-16T05:09:54;38.00;;;22.75;;
64938;SDS011;51453;47.738;7.420;2023-04-16T05:12:20;32.50;;;21.25;;
64938;SDS011;51453;47.738;7.420;2023-04-16T05:14:46;22.85;;;16.15;;
64938;SDS011;51453;47.738;7.420;2023-04-16T05:17:11;27.65;;;15.88;;
64938;SDS011;51453;47.738;7.420;2023-04-16T05:19:37;22.75;;;14.38;;
64938;SDS011;51453;47.738;7.420;2023-04-16T05:22:03;16.77;;;11.65;;
64938;SDS011;51453;47.738;7.420;2023-04-16T05:24:28;16.05;;;10.07;;
64938;SDS011;51453;47.738;7.420;2023-04-16T05:26:55;12.55;;;8.85;;
64938;SDS011;51453;47.738;7.420;2023-04-16T05:29:21;8.85;;;7.07;;
64938;SDS011;51453;47.738;7.420;2023-04-16T05:31:47;10.10;;;6.68;;
64938;SDS011;51453;47.738;7.420;2023-04-16T05:34:12;8.50;;;6.03;;
64938;SDS011;51453;47.738;7.420;2023-04-16T05:36:38;7.10;;;5.85;;
64938;SDS011;51453;47.738;7.420;2023-04-16T05:39:04;7.05;;;5.82;;
64938;SDS011;51453;47.738;7.420;2023-04-16T05:41:30;7.47;;;5.40;;
64938;SDS011;51453;47.738;7.420;2023-04-16T05:43:55;5.78;;;5.18;;
64938;SDS011;51453;47.738;7.420;2023-04-16T05:46:21;8.13;;;5.82;;
64938;SDS011;51453;47.738;7.420;2023-04-16T05:48:46;8.23;;;5.72;;
64938;SDS011;51453;47.738;7.420;2023-04-16T05:51:12;7.95;;;5.97;;
64938;SDS011;51453;47.738;7.420;2023-04-16T05:53:37;9.60;;;5.53;;
64938;SDS011;51453;47.738;7.420;2023-04-16T05:56:03;6.70;;;5.40;;
64938;SDS011;51453;47.738;7.420;2023-04-16T05:58:29;7.20;;;4.95;;
64938;SDS011;51453;47.738;7.420;2023-04-16T06:00:55;9.23;;;4.85;;
64938;SDS011;51453;47.738;7.420;2023-04-16T06:03:20;8.05;;;5.60;;
64938;SDS011;51453;47.738;7.420;2023-04-16T06:05:46;7.38;;;5.10;;
64938;SDS011;51453;47.738;7.420;2023-04-16T06:08:12;6.32;;;4.88;;
64938;SDS011;51453;47.738;7.420;2023-04-16T06:10:37;7.03;;;4.57;;
64938;SDS011;51453;47.738;7.420;2023-04-16T06:13:03;5.93;;;4.88;;
64938;SDS011;51453;47.738;7.420;2023-04-16T06:15:29;7.72;;;5.13;;
64938;SDS011;51453;47.738;7.420;2023-04-16T06:17:54;8.35;;;5.20;;
64938;SDS011;51453;47.738;7.420;2023-04-16T06:20:20;6.15;;;4.78;;
64938;SDS011;51453;47.738;7.420;2023-04-16T06:22:46;6.95;;;4.85;;
64938;SDS011;51453;47.738;7.420;2023-04-16T06:25:12;4.97;;;4.18;;
64938;SDS011;51453;47.738;7.420;2023-04-16T06:27:38;4.82;;;4.13;;
64938;SDS011;51453;47.738;7.420;2023-04-16T06:30:04;7.65;;;4.50;;
64938;SDS011;51453;47.738;7.420;2023-04-16T06:32:36;4.93;;;4.43;;
64938;SDS011;51453;47.738;7.420;2023-04-16T06:35:02;6.25;;;4.28;;
64938;SDS011;51453;47.738;7.420;2023-04-16T06:37:27;4.63;;;3.85;;
64938;SDS011;51453;47.738;7.420;2023-04-16T06:39:53;9.10;;;4.50;;
64938;SDS011;51453;47.738;7.420;2023-04-16T06:42:19;8.38;;;4.20;;
64938;SDS011;51453;47.738;7.420;2023-04-16T06:44:45;6.35;;;4.38;;
64938;SDS011;51453;47.738;7.420;2023-04-16T06:47:10;6.38;;;3.53;;
64938;SDS011;51453;47.738;7.420;2023-04-16T06:49:36;4.28;;;3.60;;
64938;SDS011;51453;47.738;7.420;2023-04-16T06:52:03;6.07;;;3.78;;
64938;SDS011;51453;47.738;7.420;2023-04-16T06:54:29;6.38;;;3.38;;
64938;SDS011;51453;47.738;7.420;2023-04-16T06:56:55;7.15;;;3.55;;
64938;SDS011;51453;47.738;7.420;2023-04-16T06:59:20;7.28;;;3.40;;
64938;SDS011;51453;47.738;7.420;2023-04-16T07:01:46;4.60;;;3.53;;
64938;SDS011;51453;47.738;7.420;2023-04-16T07:04:11;5.75;;;3.90;;
64938;SDS011;51453;47.738;7.420;2023-04-16T07:06:37;5.50;;;3.20;;
64938;SDS011;51453;47.738;7.420;2023-04-16T07:09:03;7.22;;;4.00;;
64938;SDS011;51453;47.738;7.420;2023-04-16T07:11:28;8.77;;;4.13;;
64938;SDS011;51453;47.738;7.420;2023-04-16T07:13:54;5.38;;;3.83;;
64938;SDS011;51453;47.738;7.420;2023-04-16T07:16:21;3.90;;;3.42;;
64938;SDS011;51453;47.738;7.420;2023-04-16T07:18:47;4.45;;;3.60;;
64938;SDS011;51453;47.738;7.420;2023-04-16T07:21:13;4.65;;;3.60;;
64938;SDS011;51453;47.738;7.420;2023-04-16T07:23:39;5.03;;;3.58;;
64938;SDS011;51453;47.738;7.420;2023-04-16T07:26:05;3.97;;;3.10;;
64938;SDS011;51453;47.738;7.420;2023-04-16T07:28:30;4.00;;;3.10;;
64938;SDS011;51453;47.738;7.420;2023-04-16T07:30:56;4.80;;;3.22;;
64938;SDS011;51453;47.738;7.420;2023-04-16T07:33:22;5.20;;;3.80;;
64938;SDS011;51453;47.738;7.420;2023-04-16T07:35:48;5.45;;;3.35;;
64938;SDS011;51453;47.738;7.420;2023-04-16T07:38:15;3.33;;;3.00;;
64938;SDS011;51453;47.738;7.420;2023-04-16T07:40:40;4.63;;;3.05;;
64938;SDS011;51453;47.738;7.420;2023-04-16T07:43:07;5.35;;;3.05;;
64938;SDS011;51453;47.738;7.420;2023-04-16T07:45:34;4.45;;;3.60;;
64938;SDS011;51453;47.738;7.420;2023-04-16T07:47:59;6.43;;;3.50;;
64938;SDS011;51453;47.738;7.420;2023-04-16T07:50:25;5.38;;;3.50;;
64938;SDS011;51453;47.738;7.420;2023-04-16T07:52:51;5.72;;;3.80;;
64938;SDS011;51453;47.738;7.420;2023-04-16T07:55:17;6.65;;;4.22;;
64938;SDS011;51453;47.738;7.420;2023-04-16T07:57:42;6.20;;;4.32;;
64938;SDS011;51453;47.738;7.420;2023-04-16T08:00:08;5.60;;;3.80;;
64938;SDS011;51453;47.738;7.420;2023-04-16T08:02:35;4.05;;;3.50;;
64938;SDS011;51453;47.738;7.420;2023-04-16T08:05:01;4.38;;;3.90;;
64938;SDS011;51453;47.738;7.420;2023-04-16T08:07:26;5.47;;;4.03;;
64938;SDS011;51453;47.738;7.420;2023-04-16T08:09:52;4.45;;;3.88;;
64938;SDS011;51453;47.738;7.420;2023-04-16T08:12:18;5.95;;;3.72;;
64938;SDS011;51453;47.738;7.420;2023-04-16T08:14:45;7.18;;;3.83;;
64938;SDS011;51453;47.738;7.420;2023-04-16T08:17:11;4.97;;;3.47;;
64938;SDS011;51453;47.738;7.420;2023-04-16T08:19:38;5.05;;;3.17;;
64938;SDS011;51453;47.738;7.420;2023-04-16T08:22:04;7.25;;;3.22;;
64938;SDS011;51453;47.738;7.420;2023-04-16T08:24:30;6.55;;;3.45;;
64938;SDS011;51453;47.738;7.420;2023-04-16T08:26:55;4.03;;;3.00;;
64938;SDS011;51453;47.738;7.420;2023-04-16T08:29:21;4.55;;;3.08;;
64938;SDS011;51453;47.738;7.420;2023-04-16T08:31:50;3.78;;;2.75;;
64938;SDS011;51453;47.738;7.420;2023-04-16T08:34:16;4.30;;;3.00;;
64938;SDS011;51453;47.738;7.420;2023-04-16T08:36:42;9.13;;;2.97;;
64938;SDS011;51453;47.738;7.420;2023-04-16T08:39:07;6.47;;;3.38;;
64938;SDS011;51453;47.738;7.420;2023-04-16T08:41:33;7.68;;;3.13;;
64938;SDS011;51453;47.738;7.420;2023-04-16T08:44:07;3.38;;;2.65;;
64938;SDS011;51453;47.738;7.420;2023-04-16T08:46:35;2.95;;;2.65;;
64938;SDS011;51453;47.738;7.420;2023-04-16T08:49:03;4.05;;;3.13;;
64938;SDS011;51453;47.738;7.420;2023-04-16T08:51:32;5.32;;;2.80;;
64938;SDS011;51453;47.738;7.420;2023-04-16T08:54:02;3.03;;;2.50;;
64938;SDS011;51453;47.738;7.420;2023-04-16T08:56:32;4.78;;;3.17;;
64938;SDS011;51453;47.738;7.420;2023-04-16T08:59:00;5.38;;;3.00;;
64938;SDS011;51453;47.738;7.420;2023-04-16T09:01:29;5.43;;;3.35;;
64938;SDS011;51453;47.738;7.420;2023-04-16T09:03:57;4.43;;;2.83;;
64938;SDS011;51453;47.738;7.420;2023-04-16T09:06:26;5.05;;;3.10;;
64938;SDS011;51453;47.738;7.420;2023-04-16T09:08:52;4.78;;;3.33;;
64938;SDS011;51453;47.738;7.420;2023-04-16T09:11:19;4.97;;;3.17;;
64938;SDS011;51453;47.738;7.420;2023-04-16T09:13:46;5.93;;;3.80;;
64938;SDS011;51453;47.738;7.420;2023-04-16T09:16:12;6.10;;;3.78;;
64938;SDS011;51453;47.738;7.420;2023-04-16T09:18:38;4.53;;;3.65;;
64938;SDS011;51453;47.738;7.420;2023-04-16T09:21:04;8.52;;;4.13;;
64938;SDS011;51453;47.738;7.420;2023-04-16T09:23:31;6.30;;;4.38;;
64938;SDS011;51453;47.738;7.420;2023-04-16T09:25:57;6.57;;;4.28;;
64938;SDS011;51453;47.738;7.420;2023-04-16T09:31:22;9.20;;;5.05;;
64938;SDS011;51453;47.738;7.420;2023-04-16T09:36:27;8.60;;;4.57;;
64938;SDS011;51453;47.738;7.420;2023-04-16T09:38:53;6.60;;;4.97;;
64938;SDS011;51453;47.738;7.420;2023-04-16T09:41:23;6.78;;;3.90;;
64938;SDS011;51453;47.738;7.420;2023-04-16T09:43:54;5.45;;;3.88;;
64938;SDS011;51453;47.738;7.420;2023-04-16T09:49:03;12.38;;;4.40;;
64938;SDS011;51453;47.738;7.420;2023-04-16T09:51:36;5.70;;;4.53;;
64938;SDS011;51453;47.738;7.420;2023-04-16T09:54:04;6.88;;;4.75;;
64938;SDS011;51453;47.738;7.420;2023-04-16T09:56:30;7.18;;;4.80;;
64938;SDS011;51453;47.738;7.420;2023-04-16T09:58:58;5.80;;;4.30;;
64938;SDS011;51453;47.738;7.420;2023-04-16T10:01:24;10.13;;;5.78;;
64938;SDS011;51453;47.738;7.420;2023-04-16T10:03:52;7.47;;;5.50;;
64938;SDS011;51453;47.738;7.420;2023-04-16T10:06:20;10.40;;;5.90;;
64938;SDS011;51453;47.738;7.420;2023-04-16T10:08:51;12.02;;;5.57;;
64938;SDS011;51453;47.738;7.420;2023-04-16T10:11:18;8.18;;;5.80;;
64938;SDS011;51453;47.738;7.420;2023-04-16T10:13:45;8.75;;;5.93;;
64938;SDS011;51453;47.738;7.420;2023-04-16T10:16:10;9.85;;;5.38;;
64938;SDS011;51453;47.738;7.420;2023-04-16T10:18:37;10.48;;;5.47;;
64938;SDS011;51453;47.738;7.420;2023-04-16T10:21:04;5.63;;;4.78;;
64938;SDS011;51453;47.738;7.420;2023-04-16T10:23:31;6.95;;;4.68;;
64938;SDS011;51453;47.738;7.420;2023-04-16T10:25:57;9.02;;;5.53;;
64938;SDS011;51453;47.738;7.420;2023-04-16T10:28:24;7.90;;;5.07;;
64938;SDS011;51453;47.738;7.420;2023-04-16T10:30:51;19.50;;;8.07;;
64938;SDS011;51453;47.738;7.420;2023-04-16T10:33:24;13.00;;;7.57;;
64938;SDS011;51453;47.738;7.420;2023-04-16T10:36:05;9.68;;;6.88;;
64938;SDS011;51453;47.738;7.420;2023-04-16T10:38:31;9.18;;;6.30;;
64938;SDS011;51453;47.738;7.420;2023-04-16T10:41:03;10.07;;;6.47;;
64938;SDS011;51453;47.738;7.420;2023-04-16T10:43:32;12.88;;;6.93;;
64938;SDS011;51453;47.738;7.420;2023-04-16T10:46:16;10.98;;;6.90;;
64938;SDS011;51453;47.738;7.420;2023-04-16T10:48:47;12.68;;;7.03;;
64938;SDS011;51453;47.738;7.420;2023-04-16T10:51:23;8.23;;;6.57;;
64938;SDS011;51453;47.738;7.420;2023-04-16T10:53:53;10.52;;;6.60;;
64938;SDS011;51453;47.738;7.420;2023-04-16T10:56:23;9.95;;;6.78;;
64938;SDS011;51453;47.738;7.420;2023-04-16T10:58:51;15.20;;;8.50;;
64938;SDS011;51453;47.738;7.420;2023-04-16T11:01:30;11.00;;;7.13;;
64938;SDS011;51453;47.738;7.420;2023-04-16T11:04:01;12.55;;;7.35;;
64938;SDS011;51453;47.738;7.420;2023-04-16T11:12:22;9.20;;;7.53;;
64938;SDS011;51453;47.738;7.420;2023-04-16T11:14:52;9.65;;;8.45;;
64938;SDS011;51453;47.738;7.420;2023-04-16T11:17:30;13.73;;;8.35;;
64938;SDS011;51453;47.738;7.420;2023-04-16T11:20:04;13.77;;;8.45;;
64938;SDS011;51453;47.738;7.420;2023-04-16T11:22:39;12.93;;;8.82;;
64938;SDS011;51453;47.738;7.420;2023-04-16T11:25:06;9.20;;;8.20;;
64938;SDS011;51453;47.738;7.420;2023-04-16T11:27:32;17.42;;;11.18;;
64938;SDS011;51453;47.738;7.420;2023-04-16T11:30:04;12.93;;;10.13;;
64938;SDS011;51453;47.738;7.420;2023-04-16T11:32:33;15.18;;;10.65;;
64938;SDS011;51453;47.738;7.420;2023-04-16T11:35:01;12.77;;;10.07;;
64938;SDS011;51453;47.738;7.420;2023-04-16T11:37:35;13.85;;;10.68;;
64938;SDS011;51453;47.738;7.420;2023-04-16T11:40:05;16.45;;;12.77;;
64938;SDS011;51453;47.738;7.420;2023-04-16T11:42:35;19.88;;;12.75;;
64938;SDS011;51453;47.738;7.420;2023-04-16T11:45:02;20.25;;;13.23;;
64938;SDS011;51453;47.738;7.420;2023-04-16T11:47:29;16.50;;;13.40;;
64938;SDS011;51453;47.738;7.420;2023-04-16T11:49:55;19.55;;;13.93;;
64938;SDS011;51453;47.738;7.420;2023-04-16T11:54:52;20.37;;;15.20;;
64938;SDS011;51453;47.738;7.420;2023-04-16T11:57:25;19.60;;;13.55;;
64938;SDS011;51453;47.738;7.420;2023-04-16T11:59:51;18.27;;;13.23;;
64938;SDS011;51453;47.738;7.420;2023-04-16T12:02:32;22.70;;;12.35;;
64938;SDS011;51453;47.738;7.420;2023-04-16T12:05:06;18.40;;;11.90;;
64938;SDS011;51453;47.738;7.420;2023-04-16T12:07:54;17.75;;;11.90;;
64938;SDS011;51453;47.738;7.420;2023-04-16T12:10:23;19.67;;;12.23;;
64938;SDS011;51453;47.738;7.420;2023-04-16T12:12:49;21.50;;;12.55;;
64938;SDS011;51453;47.738;7.420;2023-04-16T12:15:15;16.83;;;12.05;;
64938;SDS011;51453;47.738;7.420;2023-04-16T12:17:41;23.05;;;12.55;;
64938;SDS011;51453;47.738;7.420;2023-04-16T12:20:12;18.98;;;11.75;;
64938;SDS011;51453;47.738;7.420;2023-04-16T12:22:46;21.80;;;12.75;;
64938;SDS011;51453;47.738;7.420;2023-04-16T12:25:13;20.38;;;13.20;;
64938;SDS011;51453;47.738;7.420;2023-04-16T12:30:15;19.60;;;11.98;;
64938;SDS011;51453;47.738;7.420;2023-04-16T12:32:45;20.40;;;12.50;;
64938;SDS011;51453;47.738;7.420;2023-04-16T12:35:12;24.30;;;14.07;;
64938;SDS011;51453;47.738;7.420;2023-04-16T12:37:45;28.13;;;14.95;;
64938;SDS011;51453;47.738;7.420;2023-04-16T12:40:11;24.48;;;14.20;;
64938;SDS011;51453;47.738;7.420;2023-04-16T12:42:37;30.85;;;16.48;;
64938;SDS011;51453;47.738;7.420;2023-04-16T12:45:03;25.45;;;15.00;;
64938;SDS011;51453;47.738;7.420;2023-04-16T12:47:32;27.83;;;16.60;;
64938;SDS011;51453;47.738;7.420;2023-04-16T12:49:58;25.90;;;16.00;;
64938;SDS011;51453;47.738;7.420;2023-04-16T12:52:24;31.58;;;18.00;;
64938;SDS011;51453;47.738;7.420;2023-04-16T12:54:50;28.35;;;17.25;;
64938;SDS011;51453;47.738;7.420;2023-04-16T12:57:17;29.75;;;17.85;;
64938;SDS011;51453;47.738;7.420;2023-04-16T12:59:42;29.35;;;16.95;;
64938;SDS011;51453;47.738;7.420;2023-04-16T13:02:08;27.77;;;17.15;;
64938;SDS011;51453;47.738;7.420;2023-04-16T13:04:34;29.13;;;17.58;;
64938;SDS011;51453;47.738;7.420;2023-04-16T13:06:59;26.88;;;15.93;;
64938;SDS011;51453;47.738;7.420;2023-04-16T13:09:25;29.52;;;16.05;;
64938;SDS011;51453;47.738;7.420;2023-04-16T13:11:52;24.98;;;15.70;;
64938;SDS011;51453;47.738;7.420;2023-04-16T13:14:19;26.52;;;15.35;;
64938;SDS011;51453;47.738;7.420;2023-04-16T13:16:45;26.88;;;17.52;;
64938;SDS011;51453;47.738;7.420;2023-04-16T13:19:10;28.38;;;16.77;;
64938;SDS011;51453;47.738;7.420;2023-04-16T13:21:36;23.35;;;15.18;;
64938;SDS011;51453;47.738;7.420;2023-04-16T13:24:02;22.98;;;14.65;;
64938;SDS011;51453;47.738;7.420;2023-04-16T13:26:27;19.48;;;13.45;;
64938;SDS011;51453;47.738;7.420;2023-04-16T13:28:53;20.42;;;13.32;;
64938;SDS011;51453;47.738;7.420;2023-04-16T13:31:19;19.73;;;13.32;;
64938;SDS011;51453;47.738;7.420;2023-04-16T13:33:46;20.55;;;13.25;;
64938;SDS011;51453;47.738;7.420;2023-04-16T13:36:12;23.42;;;14.40;;
64938;SDS011;51453;47.738;7.420;2023-04-16T13:38:37;21.50;;;13.48;;
64938;SDS011;51453;47.738;7.420;2023-04-16T13:41:03;21.83;;;13.70;;
64938;SDS011;51453;47.738;7.420;2023-04-16T13:43:30;21.88;;;13.23;;
64938;SDS011;51453;47.738;7.420;2023-04-16T13:45:56;19.58;;;11.82;;
64938;SDS011;51453;47.738;7.420;2023-04-16T13:48:22;20.65;;;12.70;;
64938;SDS011;51453;47.738;7.420;2023-04-16T13:50:48;23.88;;;14.35;;
64938;SDS011;51453;47.738;7.420;2023-04-16T13:53:13;20.65;;;13.55;;
64938;SDS011;51453;47.738;7.420;2023-04-16T13:55:39;24.67;;;15.90;;
64938;SDS011;51453;47.738;7.420;2023-04-16T13:58:06;22.83;;;15.68;;
64938;SDS011;51453;47.738;7.420;2023-04-16T14:00:31;23.15;;;15.77;;
64938;SDS011;51453;47.738;7.420;2023-04-16T14:02:57;20.33;;;14.35;;
64938;SDS011;51453;47.738;7.420;2023-04-16T14:05:22;21.67;;;13.55;;
64938;SDS011;51453;47.738;7.420;2023-04-16T14:07:48;19.95;;;13.32;;
64938;SDS011;51453;47.738;7.420;2023-04-16T14:10:15;21.45;;;13.98;;
64938;SDS011;51453;47.738;7.420;2023-04-16T14:12:41;20.77;;;13.82;;
64938;SDS011;51453;47.738;7.420;2023-04-16T14:15:07;20.52;;;14.15;;
64938;SDS011;51453;47.738;7.420;2023-04-16T14:17:34;18.75;;;12.65;;
64938;SDS011;51453;47.738;7.420;2023-04-16T14:20:01;23.27;;;14.75;;
64938;SDS011;51453;47.738;7.420;2023-04-16T14:22:28;20.83;;;14.48;;
64938;SDS011;51453;47.738;7.420;2023-04-16T14:24:54;18.40;;;13.82;;
64938;SDS011;51453;47.738;7.420;2023-04-16T14:27:20;13.45;;;11.13;;
64938;SDS011;51453;47.738;7.420;2023-04-16T14:29:46;15.68;;;10.48;;
64938;SDS011;51453;47.738;7.420;2023-04-16T14:32:11;13.82;;;10.57;;
64938;SDS011;51453;47.738;7.420;2023-04-16T14:34:37;12.68;;;10.02;;
64938;SDS011;51453;47.738;7.420;2023-04-16T14:37:02;14.98;;;10.05;;
64938;SDS011;51453;47.738;7.420;2023-04-16T14:39:29;12.48;;;9.68;;
64938;SDS011;51453;47.738;7.420;2023-04-16T14:41:55;12.48;;;9.45;;
64938;SDS011;51453;47.738;7.420;2023-04-16T14:44:21;12.63;;;9.75;;
64938;SDS011;51453;47.738;7.420;2023-04-16T14:46:47;13.05;;;9.63;;